sensor_id;sensor_type;location;lat;lon;timestamp;P1;durP1;ratioP1;P2;durP2;ratioP2
20794;SDS011;28087;-33.874;151.240;2023-04-25T00:00:07;17.75;;;4.68;;
20794;SDS011;28087;-33.874;151.240;2023-04-25T00:02:42;14.85;;;4.80;;
20794;SDS011;28087;-33.874;151.240;2023-04-25T00:05:17;16.20;;;3.80;;
20794;SDS011;28087;-33.874;151.240;2023-04-25T00:07:54;14.77;;;5.10;;
20794;SDS011;28087;-33.874;151.240;2023-04-25T00:10:30;14.95;;;3.67;;
20794;SDS011;28087;-33.874;151.240;2023-04-25T00:13:06;16.13;;;5.30;;
20794;SDS011;28087;-33.874;151.240;2023-04-25T00:15:42;16.98;;;3.60;;
20794;SDS011;28087;-33.874;151.240;2023-04-25T00:18:17;13.40;;;3.55;;
20794;SDS011;28087;-33.874;151.240;2023-04-25T00:20:52;12.50;;;3.75;;
20794;SDS011;28087;-33.874;151.240;2023-04-25T00:23:27;12.07;;;3.50;;
20794;SDS011;28087;-33.874;151.240;2023-04-25T00:26:02;12.63;;;4.22;;
20794;SDS011;28087;-33.874;151.240;2023-04-25T00:28:39;11.90;;;4.80;;
20794;SDS011;28087;-33.874;151.240;2023-04-25T00:31:14;15.02;;;5.20;;
20794;SDS011;28087;-33.874;151.240;2023-04-25T00:33:49;10.60;;;4.80;;
20794;SDS011;28087;-33.874;151.240;2023-04-25T00:36:24;10.07;;;4.25;;
20794;SDS011;28087;-33.874;151.240;2023-04-25T00:38:59;11.45;;;4.20;;
20794;SDS011;28087;-33.874;151.240;2023-04-25T00:41:36;13.43;;;3.80;;
20794;SDS011;28087;-33.874;151.240;2023-04-25T00:44:12;11.00;;;3.70;;
20794;SDS011;28087;-33.874;151.240;2023-04-25T00:46:47;8.95;;;3.72;;
20794;SDS011;28087;-33.874;151.240;2023-04-25T00:49:22;9.25;;;3.80;;
20794;SDS011;28087;-33.874;151.240;2023-04-25T00:51:57;10.80;;;3.65;;
20794;SDS011;28087;-33.874;151.240;2023-04-25T00:54:32;9.73;;;3.95;;
20794;SDS011;28087;-33.874;151.240;2023-04-25T00:57:07;16.95;;;4.82;;
20794;SDS011;28087;-33.874;151.240;2023-04-25T00:59:44;16.45;;;3.80;;
20794;SDS011;28087;-33.874;151.240;2023-04-25T01:02:20;14.90;;;3.40;;
20794;SDS011;28087;-33.874;151.240;2023-04-25T01:04:54;9.27;;;3.20;;
20794;SDS011;28087;-33.874;151.240;2023-04-25T01:07:30;15.65;;;3.78;;
20794;SDS011;28087;-33.874;151.240;2023-04-25T01:10:05;16.70;;;3.28;;
20794;SDS011;28087;-33.874;151.240;2023-04-25T01:12:41;19.08;;;3.03;;
20794;SDS011;28087;-33.874;151.240;2023-04-25T01:15:18;10.30;;;2.88;;
20794;SDS011;28087;-33.874;151.240;2023-04-25T01:17:53;14.15;;;3.28;;
20794;SDS011;28087;-33.874;151.240;2023-04-25T01:20:30;16.42;;;3.20;;
20794;SDS011;28087;-33.874;151.240;2023-04-25T01:23:08;14.75;;;3.25;;
20794;SDS011;28087;-33.874;151.240;2023-04-25T01:25:44;18.80;;;3.80;;
20794;SDS011;28087;-33.874;151.240;2023-04-25T01:28:20;18.17;;;3.70;;
20794;SDS011;28087;-33.874;151.240;2023-04-25T01:30:56;19.15;;;3.30;;
20794;SDS011;28087;-33.874;151.240;2023-04-25T01:33:32;15.07;;;2.95;;
20794;SDS011;28087;-33.874;151.240;2023-04-25T01:36:06;14.82;;;3.22;;
20794;SDS011;28087;-33.874;151.240;2023-04-25T01:38:44;18.23;;;3.53;;
20794;SDS011;28087;-33.874;151.240;2023-04-25T01:41:19;13.23;;;3.00;;
20794;SDS011;28087;-33.874;151.240;2023-04-25T01:43:55;10.65;;;2.78;;
20794;SDS011;28087;-33.874;151.240;2023-04-25T01:46:29;16.00;;;3.30;;
20794;SDS011;28087;-33.874;151.240;2023-04-25T01:49:05;15.15;;;2.90;;
20794;SDS011;28087;-33.874;151.240;2023-04-25T01:51:42;16.95;;;3.05;;
20794;SDS011;28087;-33.874;151.240;2023-04-25T01:54:20;13.23;;;2.78;;
20794;SDS011;28087;-33.874;151.240;2023-04-25T01:56:55;13.77;;;2.90;;
20794;SDS011;28087;-33.874;151.240;2023-04-25T01:59:34;13.45;;;3.08;;
20794;SDS011;28087;-33.874;151.240;2023-04-25T02:02:29;12.88;;;2.95;;
20794;SDS011;28087;-33.874;151.240;2023-04-25T02:05:07;11.65;;;3.00;;
20794;SDS011;28087;-33.874;151.240;2023-04-25T02:07:43;14.35;;;2.83;;
20794;SDS011;28087;-33.874;151.240;2023-04-25T02:10:20;13.35;;;2.97;;
20794;SDS011;28087;-33.874;151.240;2023-04-25T02:13:11;13.40;;;2.75;;
20794;SDS011;28087;-33.874;151.240;2023-04-25T02:16:03;12.15;;;2.53;;
20794;SDS011;28087;-33.874;151.240;2023-04-25T02:18:39;10.40;;;2.55;;
20794;SDS011;28087;-33.874;151.240;2023-04-25T02:21:14;10.52;;;2.70;;
20794;SDS011;28087;-33.874;151.240;2023-04-25T02:23:48;13.55;;;2.70;;
20794;SDS011;28087;-33.874;151.240;2023-04-25T02:26:26;12.85;;;2.22;;
20794;SDS011;28087;-33.874;151.240;2023-04-25T02:29:03;14.48;;;2.50;;
20794;SDS011;28087;-33.874;151.240;2023-04-25T02:31:37;9.27;;;2.70;;
20794;SDS011;28087;-33.874;151.240;2023-04-25T02:34:12;14.98;;;3.00;;
20794;SDS011;28087;-33.874;151.240;2023-04-25T02:36:48;10.35;;;2.40;;
20794;SDS011;28087;-33.874;151.240;2023-04-25T02:39:23;13.20;;;2.55;;
20794;SDS011;28087;-33.874;151.240;2023-04-25T02:42:00;11.13;;;2.53;;
20794;SDS011;28087;-33.874;151.240;2023-04-25T02:44:36;15.32;;;2.95;;
20794;SDS011;28087;-33.874;151.240;2023-04-25T02:47:11;11.38;;;2.60;;
20794;SDS011;28087;-33.874;151.240;2023-04-25T02:49:45;10.77;;;2.53;;
20794;SDS011;28087;-33.874;151.240;2023-04-25T02:52:20;10.48;;;2.58;;
20794;SDS011;28087;-33.874;151.240;2023-04-25T02:55:04;9.77;;;2.33;;
20794;SDS011;28087;-33.874;151.240;2023-04-25T02:57:42;9.82;;;2.53;;
20794;SDS011;28087;-33.874;151.240;2023-04-25T03:00:27;8.25;;;2.08;;
20794;SDS011;28087;-33.874;151.240;2023-04-25T03:03:02;11.38;;;2.30;;
20794;SDS011;28087;-33.874;151.240;2023-04-25T03:05:38;12.45;;;2.47;;
20794;SDS011;28087;-33.874;151.240;2023-04-25T03:08:13;9.63;;;2.10;;
20794;SDS011;28087;-33.874;151.240;2023-04-25T03:10:49;15.35;;;3.05;;
20794;SDS011;28087;-33.874;151.240;2023-04-25T03:13:31;9.57;;;2.30;;
20794;SDS011;28087;-33.874;151.240;2023-04-25T03:16:12;7.40;;;2.15;;
20794;SDS011;28087;-33.874;151.240;2023-04-25T03:18:47;11.20;;;2.33;;
20794;SDS011;28087;-33.874;151.240;2023-04-25T03:21:25;13.15;;;2.55;;
20794;SDS011;28087;-33.874;151.240;2023-04-25T03:24:03;11.57;;;2.60;;
20794;SDS011;28087;-33.874;151.240;2023-04-25T03:26:44;12.48;;;2.35;;
20794;SDS011;28087;-33.874;151.240;2023-04-25T03:29:21;7.22;;;1.90;;
20794;SDS011;28087;-33.874;151.240;2023-04-25T03:32:04;15.63;;;2.58;;
20794;SDS011;28087;-33.874;151.240;2023-04-25T03:34:39;13.45;;;2.45;;
20794;SDS011;28087;-33.874;151.240;2023-04-25T03:37:15;7.07;;;1.80;;
20794;SDS011;28087;-33.874;151.240;2023-04-25T03:39:52;9.98;;;2.33;;
20794;SDS011;28087;-33.874;151.240;2023-04-25T03:42:36;9.27;;;2.17;;
20794;SDS011;28087;-33.874;151.240;2023-04-25T03:45:16;7.15;;;2.10;;
20794;SDS011;28087;-33.874;151.240;2023-04-25T03:47:51;13.52;;;2.50;;
20794;SDS011;28087;-33.874;151.240;2023-04-25T03:50:29;11.98;;;2.50;;
20794;SDS011;28087;-33.874;151.240;2023-04-25T03:53:03;10.25;;;2.30;;
20794;SDS011;28087;-33.874;151.240;2023-04-25T03:56:10;12.80;;;2.72;;
20794;SDS011;28087;-33.874;151.240;2023-04-25T03:58:47;13.98;;;2.60;;
20794;SDS011;28087;-33.874;151.240;2023-04-25T04:01:27;8.93;;;2.42;;
20794;SDS011;28087;-33.874;151.240;2023-04-25T04:04:02;11.85;;;2.80;;
20794;SDS011;28087;-33.874;151.240;2023-04-25T04:06:38;10.95;;;2.70;;
20794;SDS011;28087;-33.874;151.240;2023-04-25T04:09:19;11.00;;;2.10;;
20794;SDS011;28087;-33.874;151.240;2023-04-25T04:11:55;7.90;;;2.53;;
20794;SDS011;28087;-33.874;151.240;2023-04-25T04:14:32;13.38;;;2.08;;
20794;SDS011;28087;-33.874;151.240;2023-04-25T04:17:09;9.10;;;2.10;;
20794;SDS011;28087;-33.874;151.240;2023-04-25T04:19:45;8.88;;;2.28;;
20794;SDS011;28087;-33.874;151.240;2023-04-25T04:22:21;9.95;;;2.20;;
20794;SDS011;28087;-33.874;151.240;2023-04-25T04:25:00;8.63;;;2.00;;
20794;SDS011;28087;-33.874;151.240;2023-04-25T04:27:57;8.75;;;2.20;;
20794;SDS011;28087;-33.874;151.240;2023-04-25T04:30:58;13.40;;;2.45;;
20794;SDS011;28087;-33.874;151.240;2023-04-25T04:33:38;10.07;;;2.40;;
20794;SDS011;28087;-33.874;151.240;2023-04-25T04:36:13;9.43;;;2.30;;
20794;SDS011;28087;-33.874;151.240;2023-04-25T04:38:51;6.30;;;1.80;;
20794;SDS011;28087;-33.874;151.240;2023-04-25T04:41:46;9.68;;;2.42;;
20794;SDS011;28087;-33.874;151.240;2023-04-25T04:44:35;8.20;;;2.05;;
20794;SDS011;28087;-33.874;151.240;2023-04-25T04:47:23;11.93;;;2.58;;
20794;SDS011;28087;-33.874;151.240;2023-04-25T04:50:17;10.98;;;2.55;;
20794;SDS011;28087;-33.874;151.240;2023-04-25T04:53:15;12.43;;;2.50;;
20794;SDS011;28087;-33.874;151.240;2023-04-25T04:55:56;9.00;;;2.25;;
20794;SDS011;28087;-33.874;151.240;2023-04-25T04:58:45;13.88;;;2.67;;
20794;SDS011;28087;-33.874;151.240;2023-04-25T05:01:31;10.48;;;2.63;;
20794;SDS011;28087;-33.874;151.240;2023-04-25T05:04:27;8.02;;;2.10;;
20794;SDS011;28087;-33.874;151.240;2023-04-25T05:07:27;10.30;;;2.67;;
20794;SDS011;28087;-33.874;151.240;2023-04-25T05:10:10;11.23;;;2.95;;
20794;SDS011;28087;-33.874;151.240;2023-04-25T05:13:02;11.15;;;2.55;;
20794;SDS011;28087;-33.874;151.240;2023-04-25T05:16:06;20.60;;;3.00;;
20794;SDS011;28087;-33.874;151.240;2023-04-25T05:18:54;9.35;;;2.65;;
20794;SDS011;28087;-33.874;151.240;2023-04-25T05:21:53;11.63;;;2.50;;
20794;SDS011;28087;-33.874;151.240;2023-04-25T05:24:41;14.32;;;2.95;;
20794;SDS011;28087;-33.874;151.240;2023-04-25T05:27:38;11.30;;;2.67;;
20794;SDS011;28087;-33.874;151.240;2023-04-25T05:30:29;11.23;;;2.97;;
20794;SDS011;28087;-33.874;151.240;2023-04-25T05:33:14;10.55;;;2.67;;
20794;SDS011;28087;-33.874;151.240;2023-04-25T05:35:49;15.18;;;2.90;;
20794;SDS011;28087;-33.874;151.240;2023-04-25T05:38:26;12.63;;;2.85;;
20794;SDS011;28087;-33.874;151.240;2023-04-25T05:41:34;13.27;;;2.63;;
20794;SDS011;28087;-33.874;151.240;2023-04-25T05:44:33;11.32;;;2.60;;
20794;SDS011;28087;-33.874;151.240;2023-04-25T05:47:22;12.55;;;2.85;;
20794;SDS011;28087;-33.874;151.240;2023-04-25T05:50:21;16.10;;;3.45;;
20794;SDS011;28087;-33.874;151.240;2023-04-25T05:53:01;9.75;;;2.50;;
20794;SDS011;28087;-33.874;151.240;2023-04-25T05:55:40;13.13;;;2.72;;
20794;SDS011;28087;-33.874;151.240;2023-04-25T05:58:24;14.70;;;3.00;;
20794;SDS011;28087;-33.874;151.240;2023-04-25T06:01:01;11.38;;;2.70;;
20794;SDS011;28087;-33.874;151.240;2023-04-25T06:03:39;10.35;;;2.60;;
20794;SDS011;28087;-33.874;151.240;2023-04-25T06:06:18;13.10;;;2.42;;
20794;SDS011;28087;-33.874;151.240;2023-04-25T06:08:59;11.45;;;2.45;;
20794;SDS011;28087;-33.874;151.240;2023-04-25T06:11:38;11.25;;;2.45;;
20794;SDS011;28087;-33.874;151.240;2023-04-25T06:14:16;10.68;;;2.30;;
20794;SDS011;28087;-33.874;151.240;2023-04-25T06:16:54;10.85;;;2.28;;
20794;SDS011;28087;-33.874;151.240;2023-04-25T06:19:30;12.13;;;2.72;;
20794;SDS011;28087;-33.874;151.240;2023-04-25T06:22:08;12.95;;;2.88;;
20794;SDS011;28087;-33.874;151.240;2023-04-25T06:24:43;9.70;;;2.53;;
20794;SDS011;28087;-33.874;151.240;2023-04-25T06:27:18;15.88;;;2.83;;
20794;SDS011;28087;-33.874;151.240;2023-04-25T06:29:59;9.77;;;2.38;;
20794;SDS011;28087;-33.874;151.240;2023-04-25T06:32:35;13.25;;;3.00;;
20794;SDS011;28087;-33.874;151.240;2023-04-25T06:35:11;12.75;;;2.63;;
20794;SDS011;28087;-33.874;151.240;2023-04-25T06:37:45;15.70;;;2.60;;
20794;SDS011;28087;-33.874;151.240;2023-04-25T06:40:23;12.75;;;2.85;;
20794;SDS011;28087;-33.874;151.240;2023-04-25T06:42:59;12.93;;;2.55;;
20794;SDS011;28087;-33.874;151.240;2023-04-25T06:45:52;13.05;;;2.50;;
20794;SDS011;28087;-33.874;151.240;2023-04-25T06:48:30;10.57;;;2.45;;
20794;SDS011;28087;-33.874;151.240;2023-04-25T06:51:05;13.73;;;2.72;;
20794;SDS011;28087;-33.874;151.240;2023-04-25T06:53:40;13.80;;;2.90;;
20794;SDS011;28087;-33.874;151.240;2023-04-25T06:56:25;14.95;;;2.85;;
20794;SDS011;28087;-33.874;151.240;2023-04-25T06:59:08;11.93;;;2.60;;
20794;SDS011;28087;-33.874;151.240;2023-04-25T07:01:47;14.13;;;2.60;;
20794;SDS011;28087;-33.874;151.240;2023-04-25T07:04:27;12.85;;;2.50;;
20794;SDS011;28087;-33.874;151.240;2023-04-25T07:07:04;10.70;;;2.78;;
20794;SDS011;28087;-33.874;151.240;2023-04-25T07:09:47;13.00;;;2.88;;
20794;SDS011;28087;-33.874;151.240;2023-04-25T07:12:22;13.77;;;3.13;;
20794;SDS011;28087;-33.874;151.240;2023-04-25T07:14:57;9.50;;;2.55;;
20794;SDS011;28087;-33.874;151.240;2023-04-25T07:17:38;12.30;;;2.65;;
20794;SDS011;28087;-33.874;151.240;2023-04-25T07:20:14;8.48;;;2.33;;
20794;SDS011;28087;-33.874;151.240;2023-04-25T07:22:49;12.25;;;2.38;;
20794;SDS011;28087;-33.874;151.240;2023-04-25T07:25:24;15.45;;;2.78;;
20794;SDS011;28087;-33.874;151.240;2023-04-25T07:28:01;12.88;;;2.60;;
20794;SDS011;28087;-33.874;151.240;2023-04-25T07:30:37;12.65;;;2.60;;
20794;SDS011;28087;-33.874;151.240;2023-04-25T07:33:14;13.25;;;2.70;;
20794;SDS011;28087;-33.874;151.240;2023-04-25T07:35:52;15.38;;;2.75;;
20794;SDS011;28087;-33.874;151.240;2023-04-25T07:38:28;13.07;;;2.67;;
20794;SDS011;28087;-33.874;151.240;2023-04-25T07:41:03;15.88;;;3.13;;
20794;SDS011;28087;-33.874;151.240;2023-04-25T07:43:42;11.60;;;2.40;;
20794;SDS011;28087;-33.874;151.240;2023-04-25T07:46:17;12.32;;;2.53;;
20794;SDS011;28087;-33.874;151.240;2023-04-25T07:48:55;13.45;;;2.70;;
20794;SDS011;28087;-33.874;151.240;2023-04-25T07:51:31;9.70;;;2.50;;
20794;SDS011;28087;-33.874;151.240;2023-04-25T07:54:12;14.27;;;2.50;;
20794;SDS011;28087;-33.874;151.240;2023-04-25T07:56:52;13.70;;;3.00;;
20794;SDS011;28087;-33.874;151.240;2023-04-25T07:59:32;10.68;;;2.70;;
20794;SDS011;28087;-33.874;151.240;2023-04-25T08:02:07;14.95;;;2.88;;
20794;SDS011;28087;-33.874;151.240;2023-04-25T08:04:43;14.65;;;3.67;;
20794;SDS011;28087;-33.874;151.240;2023-04-25T08:07:22;16.17;;;3.38;;
20794;SDS011;28087;-33.874;151.240;2023-04-25T08:10:03;14.65;;;2.55;;
20794;SDS011;28087;-33.874;151.240;2023-04-25T08:12:39;11.40;;;2.75;;
20794;SDS011;28087;-33.874;151.240;2023-04-25T08:15:19;16.70;;;2.97;;
20794;SDS011;28087;-33.874;151.240;2023-04-25T08:17:55;16.95;;;3.15;;
20794;SDS011;28087;-33.874;151.240;2023-04-25T08:20:37;10.55;;;2.55;;
20794;SDS011;28087;-33.874;151.240;2023-04-25T08:23:15;12.43;;;2.53;;
20794;SDS011;28087;-33.874;151.240;2023-04-25T08:25:54;10.77;;;2.88;;
20794;SDS011;28087;-33.874;151.240;2023-04-25T08:28:30;13.38;;;2.90;;
20794;SDS011;28087;-33.874;151.240;2023-04-25T08:31:06;14.77;;;2.67;;
20794;SDS011;28087;-33.874;151.240;2023-04-25T08:33:51;13.55;;;2.25;;
20794;SDS011;28087;-33.874;151.240;2023-04-25T08:36:37;15.05;;;3.00;;
20794;SDS011;28087;-33.874;151.240;2023-04-25T08:39:22;15.25;;;2.90;;
20794;SDS011;28087;-33.874;151.240;2023-04-25T08:42:16;10.50;;;2.75;;
20794;SDS011;28087;-33.874;151.240;2023-04-25T08:44:51;13.65;;;2.70;;
20794;SDS011;28087;-33.874;151.240;2023-04-25T08:47:32;12.95;;;2.83;;
20794;SDS011;28087;-33.874;151.240;2023-04-25T08:50:08;14.93;;;3.35;;
20794;SDS011;28087;-33.874;151.240;2023-04-25T08:52:45;13.52;;;2.53;;
20794;SDS011;28087;-33.874;151.240;2023-04-25T08:55:23;11.27;;;2.35;;
20794;SDS011;28087;-33.874;151.240;2023-04-25T08:58:00;13.15;;;2.70;;
20794;SDS011;28087;-33.874;151.240;2023-04-25T09:00:35;14.70;;;3.17;;
20794;SDS011;28087;-33.874;151.240;2023-04-25T09:03:11;10.55;;;2.33;;
20794;SDS011;28087;-33.874;151.240;2023-04-25T09:05:48;13.80;;;2.78;;
20794;SDS011;28087;-33.874;151.240;2023-04-25T09:08:25;16.17;;;2.95;;
20794;SDS011;28087;-33.874;151.240;2023-04-25T09:11:01;13.93;;;2.90;;
20794;SDS011;28087;-33.874;151.240;2023-04-25T09:13:37;17.05;;;2.80;;
20794;SDS011;28087;-33.874;151.240;2023-04-25T09:16:25;12.73;;;2.78;;
20794;SDS011;28087;-33.874;151.240;2023-04-25T09:19:27;13.38;;;2.70;;
20794;SDS011;28087;-33.874;151.240;2023-04-25T09:22:16;13.45;;;2.80;;
20794;SDS011;28087;-33.874;151.240;2023-04-25T09:24:55;14.88;;;2.85;;
20794;SDS011;28087;-33.874;151.240;2023-04-25T09:27:30;10.23;;;2.60;;
20794;SDS011;28087;-33.874;151.240;2023-04-25T09:30:17;12.73;;;2.55;;
20794;SDS011;28087;-33.874;151.240;2023-04-25T09:33:07;14.02;;;2.67;;
20794;SDS011;28087;-33.874;151.240;2023-04-25T09:35:47;12.88;;;2.65;;
20794;SDS011;28087;-33.874;151.240;2023-04-25T09:38:40;12.15;;;2.70;;
20794;SDS011;28087;-33.874;151.240;2023-04-25T09:41:24;13.57;;;2.80;;
20794;SDS011;28087;-33.874;151.240;2023-04-25T09:44:03;9.63;;;2.35;;
20794;SDS011;28087;-33.874;151.240;2023-04-25T09:46:39;11.93;;;2.78;;
20794;SDS011;28087;-33.874;151.240;2023-04-25T09:49:20;15.18;;;2.80;;
20794;SDS011;28087;-33.874;151.240;2023-04-25T09:52:10;13.32;;;2.67;;
20794;SDS011;28087;-33.874;151.240;2023-04-25T09:54:59;13.55;;;2.78;;
20794;SDS011;28087;-33.874;151.240;2023-04-25T09:57:37;12.90;;;2.70;;
20794;SDS011;28087;-33.874;151.240;2023-04-25T10:00:12;13.32;;;2.65;;
20794;SDS011;28087;-33.874;151.240;2023-04-25T10:02:47;13.40;;;2.40;;
20794;SDS011;28087;-33.874;151.240;2023-04-25T10:05:46;14.45;;;2.58;;
20794;SDS011;28087;-33.874;151.240;2023-04-25T10:08:24;11.98;;;2.95;;
20794;SDS011;28087;-33.874;151.240;2023-04-25T10:11:00;14.85;;;2.75;;
20794;SDS011;28087;-33.874;151.240;2023-04-25T10:13:40;15.43;;;2.70;;
20794;SDS011;28087;-33.874;151.240;2023-04-25T10:16:18;11.65;;;2.58;;
20794;SDS011;28087;-33.874;151.240;2023-04-25T10:18:55;14.90;;;2.97;;
20794;SDS011;28087;-33.874;151.240;2023-04-25T10:21:30;9.35;;;2.10;;
20794;SDS011;28087;-33.874;151.240;2023-04-25T10:24:07;15.77;;;2.80;;
20794;SDS011;28087;-33.874;151.240;2023-04-25T10:26:46;15.93;;;3.00;;
20794;SDS011;28087;-33.874;151.240;2023-04-25T10:29:26;12.60;;;2.75;;
20794;SDS011;28087;-33.874;151.240;2023-04-25T10:32:01;11.68;;;2.33;;
20794;SDS011;28087;-33.874;151.240;2023-04-25T10:34:40;11.77;;;2.17;;
20794;SDS011;28087;-33.874;151.240;2023-04-25T10:37:18;10.57;;;2.88;;
20794;SDS011;28087;-33.874;151.240;2023-04-25T10:39:54;13.68;;;2.88;;
20794;SDS011;28087;-33.874;151.240;2023-04-25T10:42:28;15.45;;;2.42;;
20794;SDS011;28087;-33.874;151.240;2023-04-25T10:45:07;12.15;;;2.58;;
20794;SDS011;28087;-33.874;151.240;2023-04-25T10:47:43;11.02;;;2.35;;
20794;SDS011;28087;-33.874;151.240;2023-04-25T10:50:19;9.65;;;2.22;;
20794;SDS011;28087;-33.874;151.240;2023-04-25T10:52:53;13.20;;;2.67;;
20794;SDS011;28087;-33.874;151.240;2023-04-25T10:55:33;13.73;;;2.78;;
20794;SDS011;28087;-33.874;151.240;2023-04-25T10:58:23;11.60;;;2.40;;
20794;SDS011;28087;-33.874;151.240;2023-04-25T11:01:01;13.25;;;2.47;;
20794;SDS011;28087;-33.874;151.240;2023-04-25T11:03:39;12.55;;;2.47;;
20794;SDS011;28087;-33.874;151.240;2023-04-25T11:06:20;11.25;;;2.15;;
20794;SDS011;28087;-33.874;151.240;2023-04-25T11:08:57;10.73;;;2.03;;
20794;SDS011;28087;-33.874;151.240;2023-04-25T11:11:33;12.98;;;2.15;;
20794;SDS011;28087;-33.874;151.240;2023-04-25T11:14:16;9.25;;;2.40;;
20794;SDS011;28087;-33.874;151.240;2023-04-25T11:17:02;12.27;;;2.88;;
20794;SDS011;28087;-33.874;151.240;2023-04-25T11:19:39;10.80;;;2.40;;
20794;SDS011;28087;-33.874;151.240;2023-04-25T11:22:15;11.50;;;2.38;;
20794;SDS011;28087;-33.874;151.240;2023-04-25T11:24:49;12.38;;;2.72;;
20794;SDS011;28087;-33.874;151.240;2023-04-25T11:27:28;12.35;;;2.50;;
20794;SDS011;28087;-33.874;151.240;2023-04-25T11:30:13;13.45;;;2.65;;
20794;SDS011;28087;-33.874;151.240;2023-04-25T11:32:51;14.45;;;2.78;;
20794;SDS011;28087;-33.874;151.240;2023-04-25T11:35:26;13.38;;;2.85;;
20794;SDS011;28087;-33.874;151.240;2023-04-25T11:38:09;13.25;;;2.85;;
20794;SDS011;28087;-33.874;151.240;2023-04-25T11:40:51;13.80;;;2.50;;
20794;SDS011;28087;-33.874;151.240;2023-04-25T11:43:30;15.60;;;3.17;;
20794;SDS011;28087;-33.874;151.240;2023-04-25T11:46:12;14.38;;;2.88;;
20794;SDS011;28087;-33.874;151.240;2023-04-25T11:48:56;13.07;;;2.85;;
20794;SDS011;28087;-33.874;151.240;2023-04-25T11:51:38;14.30;;;3.25;;
20794;SDS011;28087;-33.874;151.240;2023-04-25T11:54:17;15.32;;;2.95;;
20794;SDS011;28087;-33.874;151.240;2023-04-25T11:56:52;15.10;;;2.50;;
20794;SDS011;28087;-33.874;151.240;2023-04-25T11:59:27;16.55;;;3.05;;
20794;SDS011;28087;-33.874;151.240;2023-04-25T12:02:06;14.00;;;2.60;;
20794;SDS011;28087;-33.874;151.240;2023-04-25T12:04:46;14.82;;;2.92;;
20794;SDS011;28087;-33.874;151.240;2023-04-25T12:07:31;14.30;;;2.90;;
20794;SDS011;28087;-33.874;151.240;2023-04-25T12:10:14;14.80;;;2.78;;
20794;SDS011;28087;-33.874;151.240;2023-04-25T12:12:51;17.55;;;3.25;;
20794;SDS011;28087;-33.874;151.240;2023-04-25T12:15:30;14.93;;;2.78;;
20794;SDS011;28087;-33.874;151.240;2023-04-25T12:18:08;12.73;;;2.65;;
20794;SDS011;28087;-33.874;151.240;2023-04-25T12:20:45;16.10;;;2.97;;
20794;SDS011;28087;-33.874;151.240;2023-04-25T12:23:25;17.20;;;2.88;;
20794;SDS011;28087;-33.874;151.240;2023-04-25T12:26:01;15.45;;;2.75;;
20794;SDS011;28087;-33.874;151.240;2023-04-25T12:28:37;13.73;;;3.10;;
20794;SDS011;28087;-33.874;151.240;2023-04-25T12:31:13;14.05;;;2.83;;
20794;SDS011;28087;-33.874;151.240;2023-04-25T12:33:48;13.93;;;3.20;;
20794;SDS011;28087;-33.874;151.240;2023-04-25T12:36:27;14.88;;;3.10;;
20794;SDS011;28087;-33.874;151.240;2023-04-25T12:39:04;14.75;;;3.10;;
20794;SDS011;28087;-33.874;151.240;2023-04-25T12:41:39;11.90;;;2.63;;
20794;SDS011;28087;-33.874;151.240;2023-04-25T12:44:16;15.80;;;3.10;;
20794;SDS011;28087;-33.874;151.240;2023-04-25T12:46:51;15.65;;;2.67;;
20794;SDS011;28087;-33.874;151.240;2023-04-25T12:49:28;16.10;;;3.28;;
20794;SDS011;28087;-33.874;151.240;2023-04-25T12:52:05;13.98;;;2.92;;
20794;SDS011;28087;-33.874;151.240;2023-04-25T12:54:41;16.08;;;2.85;;
20794;SDS011;28087;-33.874;151.240;2023-04-25T12:57:16;13.57;;;2.85;;
20794;SDS011;28087;-33.874;151.240;2023-04-25T12:59:51;15.88;;;2.80;;
20794;SDS011;28087;-33.874;151.240;2023-04-25T13:02:26;16.23;;;3.08;;
20794;SDS011;28087;-33.874;151.240;2023-04-25T13:05:06;16.45;;;3.05;;
20794;SDS011;28087;-33.874;151.240;2023-04-25T13:07:44;12.57;;;2.53;;
20794;SDS011;28087;-33.874;151.240;2023-04-25T13:10:18;14.98;;;2.75;;
20794;SDS011;28087;-33.874;151.240;2023-04-25T13:12:53;12.15;;;2.80;;
20794;SDS011;28087;-33.874;151.240;2023-04-25T13:15:28;14.40;;;2.65;;
20794;SDS011;28087;-33.874;151.240;2023-04-25T13:18:05;11.93;;;2.70;;
20794;SDS011;28087;-33.874;151.240;2023-04-25T13:20:40;14.15;;;2.95;;
20794;SDS011;28087;-33.874;151.240;2023-04-25T13:23:18;12.95;;;3.10;;
20794;SDS011;28087;-33.874;151.240;2023-04-25T13:25:53;12.85;;;2.78;;
20794;SDS011;28087;-33.874;151.240;2023-04-25T13:28:28;13.48;;;2.83;;
20794;SDS011;28087;-33.874;151.240;2023-04-25T13:31:03;12.85;;;2.50;;
20794;SDS011;28087;-33.874;151.240;2023-04-25T13:33:39;13.43;;;2.72;;
20794;SDS011;28087;-33.874;151.240;2023-04-25T13:36:14;11.55;;;2.58;;
20794;SDS011;28087;-33.874;151.240;2023-04-25T13:38:57;12.20;;;2.65;;
20794;SDS011;28087;-33.874;151.240;2023-04-25T13:41:32;10.98;;;2.50;;
20794;SDS011;28087;-33.874;151.240;2023-04-25T13:44:06;15.05;;;2.88;;
20794;SDS011;28087;-33.874;151.240;2023-04-25T13:46:41;14.13;;;3.00;;
20794;SDS011;28087;-33.874;151.240;2023-04-25T13:49:17;14.07;;;3.17;;
20794;SDS011;28087;-33.874;151.240;2023-04-25T13:51:53;11.27;;;2.97;;
20794;SDS011;28087;-33.874;151.240;2023-04-25T13:54:31;12.82;;;2.85;;
20794;SDS011;28087;-33.874;151.240;2023-04-25T13:57:08;13.00;;;3.25;;
20794;SDS011;28087;-33.874;151.240;2023-04-25T13:59:43;19.90;;;3.28;;
20794;SDS011;28087;-33.874;151.240;2023-04-25T14:02:17;13.02;;;2.90;;
20794;SDS011;28087;-33.874;151.240;2023-04-25T14:04:53;12.40;;;3.00;;
20794;SDS011;28087;-33.874;151.240;2023-04-25T14:07:28;13.80;;;2.95;;
20794;SDS011;28087;-33.874;151.240;2023-04-25T14:10:07;16.77;;;3.60;;
20794;SDS011;28087;-33.874;151.240;2023-04-25T14:12:44;13.13;;;3.40;;
20794;SDS011;28087;-33.874;151.240;2023-04-25T14:15:19;17.52;;;3.40;;
20794;SDS011;28087;-33.874;151.240;2023-04-25T14:17:57;15.93;;;3.40;;
20794;SDS011;28087;-33.874;151.240;2023-04-25T14:20:35;16.70;;;3.50;;
20794;SDS011;28087;-33.874;151.240;2023-04-25T14:23:10;14.45;;;3.17;;
20794;SDS011;28087;-33.874;151.240;2023-04-25T14:25:46;12.75;;;3.42;;
20794;SDS011;28087;-33.874;151.240;2023-04-25T14:28:21;12.15;;;3.22;;
20794;SDS011;28087;-33.874;151.240;2023-04-25T14:30:56;13.77;;;3.60;;
20794;SDS011;28087;-33.874;151.240;2023-04-25T14:33:31;12.05;;;3.30;;
20794;SDS011;28087;-33.874;151.240;2023-04-25T14:36:06;13.48;;;3.25;;
20794;SDS011;28087;-33.874;151.240;2023-04-25T14:38:42;15.32;;;3.58;;
20794;SDS011;28087;-33.874;151.240;2023-04-25T14:41:19;12.05;;;3.05;;
20794;SDS011;28087;-33.874;151.240;2023-04-25T14:43:54;12.65;;;3.25;;
20794;SDS011;28087;-33.874;151.240;2023-04-25T14:46:29;13.40;;;3.10;;
20794;SDS011;28087;-33.874;151.240;2023-04-25T14:49:04;11.50;;;2.95;;
20794;SDS011;28087;-33.874;151.240;2023-04-25T14:51:41;13.98;;;3.15;;
20794;SDS011;28087;-33.874;151.240;2023-04-25T14:54:17;12.05;;;3.50;;
20794;SDS011;28087;-33.874;151.240;2023-04-25T14:56:54;14.40;;;3.35;;
20794;SDS011;28087;-33.874;151.240;2023-04-25T14:59:29;14.23;;;3.30;;
20794;SDS011;28087;-33.874;151.240;2023-04-25T15:02:04;12.82;;;3.50;;
20794;SDS011;28087;-33.874;151.240;2023-04-25T15:04:39;14.00;;;3.53;;